createdAt,value
2017-09-01T00:01:27.913Z,13.00
2017-09-01T00:03:55.523Z,12.90
2017-09-01T00:06:23.148Z,12.90
2017-09-01T00:08:50.768Z,12.80
2017-09-01T00:11:18.406Z,12.80
2017-09-01T00:13:46.042Z,12.70
2017-09-01T00:16:13.647Z,12.70
2017-09-01T00:18:41.303Z,12.60
2017-09-01T00:21:08.925Z,12.60
2017-09-01T00:23:36.524Z,12.60
2017-09-01T00:26:04.141Z,12.60
2017-09-01T00:28:31.772Z,12.70
2017-09-01T00:30:59.370Z,12.60
2017-09-01T00:33:26.982Z,12.60
2017-09-01T00:35:54.626Z,12.60
2017-09-01T00:38:22.220Z,12.60
2017-09-01T00:40:49.830Z,12.50
2017-09-01T00:43:17.458Z,12.50
2017-09-01T00:48:19.003Z,12.50
2017-09-01T00:50:46.640Z,12.50
2017-09-01T00:53:14.218Z,12.50
2017-09-01T00:55:41.833Z,12.50
2017-09-01T00:58:09.390Z,12.50
2017-09-01T01:00:36.947Z,12.40
2017-09-01T01:03:04.794Z,12.50
2017-09-01T01:05:32.411Z,12.40
2017-09-01T01:08:00.016Z,12.40
2017-09-01T01:10:27.912Z,12.40
2017-09-01T01:12:55.505Z,12.40
2017-09-01T01:15:23.124Z,12.30
2017-09-01T01:17:50.714Z,12.40
2017-09-01T01:20:18.504Z,12.40
2017-09-01T01:22:46.141Z,12.30
2017-09-01T01:25:13.795Z,12.40
2017-09-01T01:27:41.395Z,12.40
2017-09-01T01:30:09.011Z,12.40
2017-09-01T01:32:36.617Z,12.40
2017-09-01T01:35:05.093Z,12.30
2017-09-01T01:37:32.732Z,12.40
2017-09-01T01:40:00.382Z,12.30
2017-09-01T01:42:28.004Z,12.30
2017-09-01T01:44:55.599Z,12.30
2017-09-01T01:47:23.200Z,12.20
2017-09-01T01:49:50.818Z,12.20
2017-09-01T01:52:18.447Z,12.20
2017-09-01T01:54:46.085Z,12.20
2017-09-01T01:57:13.675Z,12.30
2017-09-01T01:59:41.289Z,12.20
2017-09-01T02:02:08.857Z,12.30
2017-09-01T02:04:36.485Z,12.30
2017-09-01T02:07:04.034Z,12.30
2017-09-01T02:09:32.486Z,12.30
2017-09-01T02:12:00.079Z,12.20
2017-09-01T02:14:27.658Z,12.20
2017-09-01T02:16:55.264Z,12.30
2017-09-01T02:19:22.926Z,12.30
2017-09-01T02:21:50.537Z,12.30
2017-09-01T02:24:18.179Z,12.30
2017-09-01T02:26:45.790Z,12.20
2017-09-01T02:29:13.383Z,12.20
2017-09-01T02:31:40.982Z,12.20
2017-09-01T02:34:08.577Z,12.10
2017-09-01T02:36:36.205Z,12.10
2017-09-01T02:39:03.824Z,12.10
2017-09-01T02:41:31.449Z,12.20
2017-09-01T02:43:59.049Z,12.20
2017-09-01T02:46:26.718Z,12.10
2017-09-01T02:48:54.303Z,12.10
2017-09-01T02:51:21.920Z,12.10
2017-09-01T02:53:49.568Z,12.20
2017-09-01T02:56:17.159Z,12.20
2017-09-01T02:58:44.749Z,12.20
2017-09-01T03:01:12.424Z,12.20
2017-09-01T03:03:40.280Z,12.10
2017-09-01T03:06:07.835Z,12.20
2017-09-01T03:08:35.473Z,12.20
2017-09-01T03:11:03.062Z,12.20
2017-09-01T03:13:30.740Z,12.20
2017-09-01T03:15:58.354Z,12.20
2017-09-01T03:18:25.989Z,12.20
2017-09-01T03:20:53.586Z,12.20
2017-09-01T03:23:21.970Z,12.20
2017-09-01T03:25:49.569Z,12.20
2017-09-01T03:28:17.197Z,12.20
2017-09-01T03:30:44.826Z,12.10
2017-09-01T03:33:12.429Z,12.10
2017-09-01T03:35:40.941Z,12.10
2017-09-01T03:38:08.683Z,12.00
2017-09-01T03:40:36.308Z,12.00
2017-09-01T03:43:04.022Z,12.00
2017-09-01T03:45:31.663Z,12.00
2017-09-01T03:47:59.297Z,11.90
2017-09-01T03:50:26.962Z,11.90
2017-09-01T03:52:54.643Z,11.80
2017-09-01T03:55:22.321Z,11.80
2017-09-01T03:57:50.236Z,11.80
2017-09-01T04:00:17.913Z,11.80
2017-09-01T04:02:45.683Z,11.80
2017-09-01T04:05:13.305Z,11.80
2017-09-01T04:07:40.979Z,11.80
2017-09-01T04:10:08.763Z,11.70
2017-09-01T04:12:36.366Z,11.70
2017-09-01T04:15:03.985Z,11.70
2017-09-01T04:17:31.604Z,11.50
2017-09-01T04:19:59.295Z,11.60
2017-09-01T04:22:26.964Z,11.70
2017-09-01T04:24:54.556Z,11.70
2017-09-01T04:27:22.197Z,11.70
2017-09-01T04:29:49.759Z,11.80
2017-09-01T04:32:17.396Z,11.80
2017-09-01T04:34:45.076Z,11.80
2017-09-01T04:37:13.589Z,11.80
2017-09-01T04:39:41.217Z,11.80
2017-09-01T04:42:08.825Z,11.80
2017-09-01T04:44:36.415Z,11.70
2017-09-01T04:47:03.999Z,11.60
2017-09-01T04:49:31.588Z,11.70
2017-09-01T04:51:59.221Z,11.70
2017-09-01T04:54:26.860Z,11.60
2017-09-01T04:56:54.462Z,11.70
2017-09-01T04:59:22.089Z,11.60
2017-09-01T05:01:49.731Z,11.60
2017-09-01T05:04:17.313Z,11.60
2017-09-01T05:06:45.829Z,11.60
2017-09-01T05:09:13.459Z,11.70
2017-09-01T05:11:41.072Z,11.60
2017-09-01T05:14:08.740Z,11.60
2017-09-01T05:16:36.354Z,11.70
2017-09-01T05:19:04.027Z,11.70
2017-09-01T05:21:31.653Z,11.80
2017-09-01T05:23:59.268Z,11.80
2017-09-01T05:26:26.886Z,11.90
2017-09-01T05:28:54.972Z,11.90
2017-09-01T05:31:22.582Z,11.90
2017-09-01T05:33:50.172Z,11.90
2017-09-01T05:36:17.771Z,11.80
2017-09-01T05:38:45.341Z,11.80
2017-09-01T05:41:12.992Z,11.80
2017-09-01T05:43:40.592Z,11.70
2017-09-01T05:46:08.196Z,11.70
2017-09-01T05:48:35.840Z,11.70
2017-09-01T05:51:03.548Z,11.90
2017-09-01T05:53:31.209Z,12.00
2017-09-01T05:55:58.817Z,12.00
2017-09-01T05:58:26.458Z,12.00
2017-09-01T06:00:54.081Z,12.20
2017-09-01T06:03:21.690Z,12.30
2017-09-01T06:05:49.324Z,12.50
2017-09-01T06:08:16.923Z,12.70
2017-09-01T06:10:45.338Z,12.80
2017-09-01T06:13:13.088Z,13.00
2017-09-01T06:15:40.692Z,13.20
2017-09-01T06:18:09.227Z,13.30
2017-09-01T06:20:36.908Z,13.40
2017-09-01T06:23:04.580Z,13.50
2017-09-01T06:25:32.197Z,13.60
2017-09-01T06:27:59.793Z,13.40
2017-09-01T06:30:27.440Z,13.50
2017-09-01T06:32:55.034Z,13.70
2017-09-01T06:35:22.678Z,13.80
2017-09-01T06:37:50.324Z,14.10
2017-09-01T06:40:17.967Z,14.20
2017-09-01T06:42:45.556Z,14.20
2017-09-01T06:45:13.204Z,14.20
2017-09-01T06:47:40.818Z,14.40
2017-09-01T06:50:08.473Z,14.50
2017-09-01T06:52:36.073Z,14.50
2017-09-01T06:55:03.687Z,14.40
2017-09-01T06:57:31.303Z,14.60
2017-09-01T06:59:59.002Z,14.70
2017-09-01T07:02:26.696Z,14.90
2017-09-01T07:04:54.547Z,15.10
2017-09-01T07:07:22.154Z,15.20
2017-09-01T07:09:49.782Z,15.40
2017-09-01T07:12:17.438Z,15.50
2017-09-01T07:14:45.116Z,15.60
2017-09-01T07:17:12.823Z,15.50
2017-09-01T07:19:40.647Z,15.60
2017-09-01T07:22:08.239Z,15.60
2017-09-01T07:24:35.914Z,15.50
2017-09-01T07:27:03.584Z,15.60
2017-09-01T07:29:31.258Z,15.50
2017-09-01T07:31:58.908Z,15.50
2017-09-01T07:34:26.534Z,15.50
2017-09-01T07:36:54.202Z,15.50
2017-09-01T07:39:21.801Z,15.50
2017-09-01T07:41:49.388Z,15.40
2017-09-01T07:44:17.056Z,15.40
2017-09-01T07:46:44.621Z,15.50
2017-09-01T07:49:12.195Z,15.60
2017-09-01T07:51:41.546Z,15.60
2017-09-01T07:54:09.201Z,15.90
2017-09-01T07:56:36.787Z,16.10
2017-09-01T07:59:04.426Z,16.10
2017-09-01T08:01:32.040Z,16.30
2017-09-01T08:03:59.696Z,16.40
2017-09-01T08:06:27.359Z,16.50
2017-09-01T08:08:55.017Z,16.70
2017-09-01T08:11:22.706Z,16.80
2017-09-01T08:13:50.326Z,16.70
2017-09-01T08:16:17.950Z,16.80
2017-09-01T08:18:45.621Z,16.90
2017-09-01T08:21:13.228Z,17.10
2017-09-01T08:23:40.841Z,17.10
2017-09-01T08:26:08.433Z,17.20
2017-09-01T08:28:36.096Z,17.20
2017-09-01T08:31:03.735Z,17.20
2017-09-01T08:33:31.368Z,17.30
2017-09-01T08:35:59.043Z,17.50
2017-09-01T08:38:27.527Z,17.50
2017-09-01T08:40:55.198Z,17.70
2017-09-01T08:43:22.892Z,17.60
2017-09-01T08:45:50.523Z,17.70
2017-09-01T08:48:18.148Z,17.70
2017-09-01T08:50:45.774Z,17.70
2017-09-01T08:53:13.406Z,17.90
2017-09-01T08:55:41.102Z,17.90
2017-09-01T08:58:08.737Z,18.00
2017-09-01T09:00:36.403Z,18.00
2017-09-01T09:03:04.088Z,17.90
2017-09-01T09:05:31.703Z,18.10
2017-09-01T09:07:59.293Z,18.10
2017-09-01T09:10:26.976Z,18.20
2017-09-01T09:12:54.608Z,18.30
2017-09-01T09:15:22.221Z,18.40
2017-09-01T09:17:50.917Z,18.50
2017-09-01T09:20:18.642Z,18.50
2017-09-01T09:22:46.304Z,18.40
2017-09-01T09:25:13.926Z,18.50
2017-09-01T09:27:41.557Z,18.40
2017-09-01T09:30:09.161Z,18.40
2017-09-01T09:32:36.810Z,18.40
2017-09-01T09:35:04.479Z,18.20
2017-09-01T09:37:32.077Z,18.10
2017-09-01T09:39:59.706Z,18.00
2017-09-01T09:42:28.173Z,18.00
2017-09-01T09:44:55.764Z,18.00
2017-09-01T09:47:23.404Z,18.00
2017-09-01T09:49:51.028Z,18.00
2017-09-01T09:52:18.634Z,17.90
2017-09-01T09:54:46.698Z,17.90
2017-09-01T09:57:14.352Z,17.90
2017-09-01T09:59:41.973Z,17.90
2017-09-01T10:02:09.616Z,18.00
2017-09-01T10:04:37.230Z,18.00
2017-09-01T10:07:04.861Z,18.10
2017-09-01T10:09:32.435Z,18.30
2017-09-01T10:12:00.013Z,18.40
2017-09-01T10:14:27.646Z,18.60
2017-09-01T10:16:55.836Z,18.80
2017-09-01T10:19:23.481Z,19.00
2017-09-01T10:21:51.073Z,19.10
2017-09-01T10:24:18.726Z,19.10
2017-09-01T10:26:46.911Z,19.00
2017-09-01T10:29:14.567Z,18.90
2017-09-01T10:31:42.276Z,18.80
2017-09-01T10:34:09.893Z,18.60
2017-09-01T10:36:37.560Z,18.40
2017-09-01T10:39:05.217Z,18.40
2017-09-01T10:41:32.861Z,18.30
2017-09-01T10:44:00.447Z,18.20
2017-09-01T10:46:28.098Z,18.30
2017-09-01T10:49:07.689Z,18.40
2017-09-01T10:51:47.180Z,18.40
2017-09-01T10:57:26.374Z,18.70
2017-09-01T10:59:54.035Z,18.70
2017-09-01T11:02:21.745Z,18.70
2017-09-01T11:04:49.402Z,18.80
2017-09-01T11:07:17.069Z,18.80
2017-09-01T11:09:44.738Z,18.90
2017-09-01T11:12:12.363Z,19.00
2017-09-01T11:14:39.994Z,19.00
2017-09-01T11:17:07.633Z,19.20
2017-09-01T11:19:40.854Z,19.30
2017-09-01T11:22:14.267Z,19.40
2017-09-01T11:24:42.029Z,19.40
2017-09-01T11:27:09.930Z,19.60
2017-09-01T11:29:37.584Z,19.70
2017-09-01T11:32:05.386Z,19.70
2017-09-01T11:34:33.072Z,19.70
2017-09-01T11:37:00.691Z,20.00
2017-09-01T11:39:28.436Z,20.10
2017-09-01T11:41:56.079Z,20.20
2017-09-01T11:44:23.714Z,20.20
2017-09-01T11:46:51.317Z,20.30
2017-09-01T11:49:18.974Z,20.40
2017-09-01T11:51:46.713Z,20.50
2017-09-01T11:54:15.062Z,20.60
2017-09-01T11:56:42.809Z,20.70
2017-09-01T11:59:10.483Z,20.50
2017-09-01T12:01:38.109Z,20.40
2017-09-01T12:04:05.866Z,20.40
2017-09-01T12:06:33.515Z,20.40
2017-09-01T12:09:01.138Z,20.50
2017-09-01T12:11:28.708Z,20.50
2017-09-01T12:13:56.352Z,20.60
2017-09-01T12:16:23.954Z,20.40
2017-09-01T12:18:51.610Z,20.40
2017-09-01T12:21:19.249Z,20.40
2017-09-01T12:23:46.938Z,20.40
2017-09-01T12:26:14.671Z,20.50
2017-09-01T12:28:42.284Z,20.60
2017-09-01T12:31:09.888Z,20.70
2017-09-01T12:33:37.498Z,20.80
2017-09-01T12:36:05.123Z,20.90
2017-09-01T12:38:32.847Z,20.80
2017-09-01T12:41:00.505Z,20.70
2017-09-01T12:43:28.171Z,20.70
2017-09-01T12:45:55.804Z,20.80
2017-09-01T12:48:23.424Z,20.80
2017-09-01T12:50:51.067Z,20.80
2017-09-01T12:53:18.731Z,20.90
2017-09-01T12:55:46.372Z,20.80
2017-09-01T12:58:13.981Z,20.70
2017-09-01T13:00:41.697Z,20.50
2017-09-01T13:03:09.363Z,20.50
2017-09-01T13:05:37.108Z,20.50
2017-09-01T13:08:04.716Z,20.50
2017-09-01T13:10:32.312Z,20.50
2017-09-01T13:13:00.005Z,20.60
2017-09-01T13:15:27.611Z,20.70
2017-09-01T13:17:55.718Z,20.80
2017-09-01T13:20:23.420Z,20.90
2017-09-01T13:22:51.426Z,21.00
2017-09-01T13:25:19.100Z,21.00
2017-09-01T13:27:46.734Z,21.00
2017-09-01T13:30:14.336Z,21.10
2017-09-01T13:32:41.964Z,21.20
2017-09-01T13:35:10.538Z,21.20
2017-09-01T13:37:38.194Z,21.20
2017-09-01T13:40:05.799Z,21.20
2017-09-01T13:42:33.437Z,21.30
2017-09-01T13:45:01.040Z,21.20
2017-09-01T13:47:28.666Z,21.20
2017-09-01T13:49:56.324Z,21.20
2017-09-01T13:52:23.902Z,21.30
2017-09-01T13:54:51.530Z,21.30
2017-09-01T13:57:19.147Z,21.30
2017-09-01T13:59:46.838Z,21.40
2017-09-01T14:02:14.476Z,21.40
2017-09-01T14:04:42.355Z,21.30
2017-09-01T14:07:09.979Z,21.10
2017-09-01T14:09:37.586Z,21.00
2017-09-01T14:12:05.248Z,21.00
2017-09-01T14:14:32.870Z,20.90
2017-09-01T14:17:00.488Z,20.80
2017-09-01T14:19:28.075Z,20.70
2017-09-01T14:21:55.755Z,20.70
2017-09-01T14:24:23.406Z,20.70
2017-09-01T14:26:51.016Z,20.80
2017-09-01T14:29:18.630Z,20.80
2017-09-01T14:31:46.322Z,20.70
2017-09-01T14:34:13.925Z,20.50
2017-09-01T14:36:41.487Z,20.50
2017-09-01T14:39:09.118Z,20.40
2017-09-01T14:41:36.703Z,20.40
2017-09-01T14:44:04.319Z,20.40
2017-09-01T14:46:31.902Z,20.10
2017-09-01T14:48:59.502Z,20.00
2017-09-01T14:51:27.149Z,20.00
2017-09-01T14:53:54.718Z,20.10
2017-09-01T14:56:22.349Z,20.20
2017-09-01T14:58:49.982Z,20.20
2017-09-01T15:01:17.589Z,20.20
2017-09-01T15:03:45.206Z,20.30
2017-09-01T15:06:12.839Z,20.30
2017-09-01T15:08:40.459Z,20.30
2017-09-01T15:11:08.070Z,20.20
2017-09-01T15:13:35.683Z,20.00
2017-09-01T15:16:03.297Z,19.90
2017-09-01T15:18:30.888Z,19.90
2017-09-01T15:20:58.532Z,20.00
2017-09-01T15:23:26.179Z,19.90
2017-09-01T15:25:53.804Z,19.90
2017-09-01T15:28:21.428Z,19.80
2017-09-01T15:30:49.060Z,19.60
2017-09-01T15:33:16.684Z,19.50
2017-09-01T15:35:44.748Z,19.20
2017-09-01T15:38:12.397Z,19.00
2017-09-01T15:40:40.029Z,18.70
2017-09-01T15:43:07.685Z,18.60
2017-09-01T15:45:35.307Z,18.20
2017-09-01T15:48:02.976Z,17.90
2017-09-01T15:53:04.713Z,17.00
2017-09-01T15:55:32.356Z,16.70
2017-09-01T15:58:00.056Z,16.70
2017-09-01T16:00:27.673Z,16.80
2017-09-01T16:02:55.276Z,16.70
2017-09-01T16:05:22.870Z,16.60
2017-09-01T16:07:50.587Z,16.50
2017-09-01T16:10:18.189Z,16.30
2017-09-01T16:12:45.770Z,16.20
2017-09-01T16:15:13.358Z,16.30
2017-09-01T16:17:40.968Z,16.30
2017-09-01T16:20:08.590Z,16.30
2017-09-01T16:22:36.176Z,16.20
2017-09-01T16:25:03.790Z,16.10
2017-09-01T16:27:31.532Z,16.00
2017-09-01T16:29:59.218Z,15.90
2017-09-01T16:32:26.876Z,15.80
2017-09-01T16:34:54.462Z,15.80
2017-09-01T16:37:22.038Z,15.60
2017-09-01T16:39:49.749Z,15.50
2017-09-01T16:42:17.343Z,15.50
2017-09-01T16:44:44.932Z,15.50
2017-09-01T16:47:12.545Z,15.50
2017-09-01T16:49:40.161Z,15.50
2017-09-01T16:52:08.155Z,15.30
2017-09-01T16:54:35.792Z,15.40
2017-09-01T16:57:03.482Z,15.30
2017-09-01T16:59:31.087Z,15.30
2017-09-01T17:01:58.733Z,15.30
2017-09-01T17:04:26.362Z,15.40
2017-09-01T17:06:53.941Z,15.40
2017-09-01T17:09:21.565Z,15.50
2017-09-01T17:11:49.196Z,15.50
2017-09-01T17:14:16.822Z,15.60
2017-09-01T17:16:44.458Z,15.60
2017-09-01T17:19:12.671Z,15.50
2017-09-01T17:21:40.304Z,15.40
2017-09-01T17:24:07.934Z,15.40
2017-09-01T17:26:35.527Z,15.50
2017-09-01T17:29:03.179Z,15.50
2017-09-01T17:31:30.803Z,15.40
2017-09-01T17:33:58.440Z,15.40
2017-09-01T17:36:26.058Z,15.40
2017-09-01T17:38:53.689Z,15.40
2017-09-01T17:41:21.323Z,15.30
2017-09-01T17:43:48.934Z,15.30
2017-09-01T17:46:16.554Z,15.40
2017-09-01T17:48:44.185Z,15.50
2017-09-01T17:51:11.797Z,15.50
2017-09-01T17:53:39.464Z,15.60
2017-09-01T17:56:07.116Z,15.60
2017-09-01T17:58:35.634Z,15.60
2017-09-01T18:01:03.267Z,15.60
2017-09-01T18:03:30.840Z,15.60
2017-09-01T18:05:58.482Z,15.60
2017-09-01T18:08:26.225Z,15.60
2017-09-01T18:10:56.155Z,15.70
2017-09-01T18:13:23.759Z,15.70
2017-09-01T18:15:51.440Z,15.80
2017-09-01T18:18:19.258Z,15.80
2017-09-01T18:20:47.446Z,15.90
2017-09-01T18:23:15.326Z,16.00
2017-09-01T18:25:42.945Z,16.00
2017-09-01T18:28:10.749Z,16.00
2017-09-01T18:30:38.418Z,16.10
2017-09-01T18:33:06.033Z,16.10
2017-09-01T18:35:33.690Z,16.20
2017-09-01T18:38:01.657Z,16.20
2017-09-01T18:40:29.292Z,16.20
2017-09-01T18:42:56.951Z,16.30
2017-09-01T18:45:24.556Z,16.30
2017-09-01T18:47:52.152Z,16.30
2017-09-01T18:50:19.748Z,16.30
2017-09-01T18:52:47.386Z,16.40
2017-09-01T18:55:15.090Z,16.40
2017-09-01T18:57:42.738Z,16.40
2017-09-01T19:00:10.352Z,16.30
2017-09-01T19:02:38.016Z,16.40
2017-09-01T19:05:05.725Z,16.30
2017-09-01T19:07:33.419Z,16.40
2017-09-01T19:10:01.058Z,16.40
2017-09-01T19:12:28.641Z,16.40
2017-09-01T19:14:56.266Z,16.30
2017-09-01T19:17:23.901Z,16.40
2017-09-01T19:19:51.531Z,16.40
2017-09-01T19:22:19.140Z,16.30
2017-09-01T19:24:46.793Z,16.20
2017-09-01T19:27:14.443Z,16.10
2017-09-01T19:29:42.073Z,16.00
2017-09-01T19:32:22.777Z,15.80
2017-09-01T19:34:50.335Z,15.70
2017-09-01T19:37:17.902Z,15.70
2017-09-01T19:39:45.900Z,15.60
2017-09-01T19:42:13.490Z,15.50
2017-09-01T19:44:41.099Z,15.50
2017-09-01T19:47:08.710Z,15.50
2017-09-01T19:49:36.313Z,15.50
2017-09-01T19:52:04.516Z,15.60
2017-09-01T19:54:32.122Z,15.60
2017-09-01T19:56:59.672Z,15.60
2017-09-01T19:59:27.259Z,15.60
2017-09-01T20:01:54.845Z,15.70
2017-09-01T20:04:22.379Z,15.80
2017-09-01T20:06:49.957Z,15.80
2017-09-01T20:09:17.601Z,15.90
2017-09-01T20:11:45.263Z,16.00
2017-09-01T20:14:13.437Z,16.00
2017-09-01T20:16:41.025Z,16.00
2017-09-01T20:19:08.627Z,16.10
2017-09-01T20:21:36.234Z,16.10
2017-09-01T20:24:03.806Z,16.00
2017-09-01T20:26:31.439Z,16.00
2017-09-01T20:28:59.017Z,16.00
2017-09-01T20:31:26.645Z,15.90
2017-09-01T20:33:54.229Z,15.80
2017-09-01T20:36:21.786Z,15.70
2017-09-01T20:38:49.421Z,15.60
2017-09-01T20:41:17.006Z,15.50
2017-09-01T20:43:44.551Z,15.50
2017-09-01T20:46:12.157Z,15.30
2017-09-01T20:48:39.714Z,15.40
2017-09-01T20:51:07.283Z,15.30
2017-09-01T20:53:34.875Z,15.30
2017-09-01T20:56:02.459Z,15.30
2017-09-01T20:58:29.994Z,15.30
2017-09-01T21:00:57.575Z,15.30
2017-09-01T21:03:25.133Z,15.30
2017-09-01T21:05:52.700Z,15.30
2017-09-01T21:08:20.325Z,15.30
2017-09-01T21:10:47.900Z,15.40
2017-09-01T21:13:15.448Z,15.40
2017-09-01T21:15:43.123Z,15.40
2017-09-01T21:18:10.750Z,15.40
2017-09-01T21:20:38.349Z,15.40
2017-09-01T21:23:05.935Z,15.40
2017-09-01T21:25:33.516Z,15.50
2017-09-01T21:28:01.093Z,15.50
2017-09-01T21:30:29.470Z,15.60
2017-09-01T21:32:57.489Z,15.60
2017-09-01T21:35:25.093Z,15.60
2017-09-01T21:37:52.675Z,15.60
2017-09-01T21:40:20.237Z,15.60
2017-09-01T21:42:47.797Z,15.60
2017-09-01T21:45:15.458Z,15.70
2017-09-01T21:47:43.036Z,15.70
2017-09-01T21:50:10.589Z,15.70
2017-09-01T21:52:38.162Z,15.60
2017-09-01T21:55:05.749Z,15.60
2017-09-01T21:57:33.347Z,15.50
2017-09-01T22:00:00.921Z,15.40
2017-09-01T22:02:28.482Z,15.30
2017-09-01T22:04:56.042Z,15.30
2017-09-01T22:07:23.610Z,15.30
2017-09-01T22:09:51.192Z,15.30
2017-09-01T22:12:18.760Z,15.30
2017-09-01T22:14:47.268Z,15.30
2017-09-01T22:17:14.846Z,15.30
2017-09-01T22:19:42.379Z,15.30
2017-09-01T22:22:10.001Z,15.30
2017-09-01T22:24:37.843Z,15.30
2017-09-01T22:27:05.432Z,15.30
2017-09-01T22:29:33.028Z,15.30
2017-09-01T22:32:00.576Z,15.30
2017-09-01T22:34:29.139Z,15.40
2017-09-01T22:36:56.728Z,15.40
2017-09-01T22:39:24.327Z,15.40
2017-09-01T22:41:52.599Z,15.40
2017-09-01T22:44:20.156Z,15.50
2017-09-01T22:46:47.747Z,15.50
2017-09-01T22:49:15.293Z,15.50
2017-09-01T22:51:42.906Z,15.40
2017-09-01T22:54:10.522Z,15.40
2017-09-01T22:56:38.835Z,15.40
2017-09-01T22:59:06.426Z,15.40
2017-09-01T23:01:34.025Z,15.40
2017-09-01T23:04:01.634Z,15.30
2017-09-01T23:06:29.225Z,15.30
2017-09-01T23:08:56.773Z,15.30
2017-09-01T23:11:24.349Z,15.30
2017-09-01T23:13:51.977Z,15.20
2017-09-01T23:16:19.547Z,15.20
2017-09-01T23:18:47.136Z,15.10
2017-09-01T23:21:14.724Z,15.00
2017-09-01T23:23:42.309Z,15.00
2017-09-01T23:26:09.873Z,15.00
2017-09-01T23:28:37.466Z,14.90
2017-09-01T23:31:05.114Z,14.90
2017-09-01T23:33:32.682Z,14.90
2017-09-01T23:36:00.246Z,14.90
2017-09-01T23:38:27.820Z,14.80
2017-09-01T23:40:55.398Z,14.90
2017-09-01T23:43:23.001Z,14.90
2017-09-01T23:45:50.548Z,14.80
2017-09-01T23:48:18.098Z,14.80
2017-09-01T23:50:45.675Z,14.80
2017-09-01T23:53:13.288Z,14.80
2017-09-01T23:55:40.854Z,14.70
2017-09-01T23:58:08.754Z,14.70
